FAT095 VNKT-VNCG
Flight info
| Callsign | FAT095 |
|---|---|
| Flight time | 1h 28m |
| Altitude | 14000 |
| Route | IGRIS1E AHALE DCT CHURE CHURE1R |
| Aircraft | L410/M-SDFGRWY/S |
Departure
| Time | 2026-04-17 15:25 |
|---|---|
| Airport | Tribhuvan International Airport (VNKT) |
Arrival
| Time | 2026-04-17 16:53 |
|---|---|
| Airport | Bhadrapur Airport (VNCG) |
| Time | Latitude | Longitude | Altitude | Speed | Heading |
|---|---|---|---|---|---|
| 2026-04-17 14:42 | 27.70375 | 85.35925 | 4402 ft | 0 kts | 253° |
| 2026-04-17 15:18 | 27.70365 | 85.35931 | 4402 ft | 1 kts | 117° |
| 2026-04-17 15:18 | 27.70365 | 85.35949 | 4402 ft | 3 kts | 70° |
| 2026-04-17 15:18 | 27.70384 | 85.35999 | 4403 ft | 9 kts | 58° |
| 2026-04-17 15:19 | 27.70444 | 85.36017 | 4403 ft | 0 kts | 341° |
| 2026-04-17 15:19 | 27.70445 | 85.36016 | 4403 ft | 0 kts | 341° |
| 2026-04-17 15:19 | 27.70447 | 85.36015 | 4403 ft | 0 kts | 342° |
| 2026-04-17 15:20 | 27.70469 | 85.36008 | 4403 ft | 5 kts | 351° |
| 2026-04-17 15:21 | 27.70474 | 85.36048 | 4402 ft | 11 kts | 79° |
| 2026-04-17 15:21 | 27.70503 | 85.36148 | 4398 ft | 11 kts | 71° |
| 2026-04-17 15:21 | 27.70560 | 85.36208 | 4395 ft | 11 kts | 33° |
| 2026-04-17 15:21 | 27.70575 | 85.36231 | 4394 ft | 0 kts | 76° |
| 2026-04-17 15:22 | 27.70578 | 85.36244 | 4394 ft | 0 kts | 76° |
| 2026-04-17 15:22 | 27.70583 | 85.36266 | 4393 ft | 7 kts | 81° |
| 2026-04-17 15:22 | 27.70547 | 85.36312 | 4393 ft | 9 kts | 177° |
| 2026-04-17 15:22 | 27.70511 | 85.36302 | 4394 ft | 0 kts | 201° |
| 2026-04-17 15:23 | 27.70510 | 85.36302 | 4394 ft | 0 kts | 202° |
| 2026-04-17 15:23 | 27.70499 | 85.36297 | 4394 ft | 11 kts | 202° |
| 2026-04-17 15:23 | 27.70230 | 85.36175 | 4398 ft | 66 kts | 203° |
| 2026-04-17 15:23 | 27.69698 | 85.35944 | 4414 ft | 93 kts | 202° |
| 2026-04-17 15:24 | 27.69099 | 85.35680 | 4649 ft | 93 kts | 202° |
| 2026-04-17 15:24 | 27.68558 | 85.35198 | 4702 ft | 110 kts | 241° |
| 2026-04-17 15:24 | 27.68482 | 85.34322 | 4762 ft | 120 kts | 287° |
| 2026-04-17 15:24 | 27.69015 | 85.33592 | 4850 ft | 127 kts | 330° |
| 2026-04-17 15:25 | 27.69898 | 85.33487 | 4928 ft | 133 kts | 15° |
| 2026-04-17 15:25 | 27.70610 | 85.34124 | 4999 ft | 136 kts | 60° |
| 2026-04-17 15:25 | 27.70720 | 85.35170 | 5068 ft | 138 kts | 105° |
| 2026-04-17 15:25 | 27.70134 | 85.36008 | 5136 ft | 139 kts | 149° |
| 2026-04-17 15:26 | 27.69193 | 85.36171 | 5203 ft | 140 kts | 191° |
| 2026-04-17 15:26 | 27.68405 | 85.35559 | 5269 ft | 140 kts | 236° |
| 2026-04-17 15:26 | 27.68231 | 85.34502 | 5333 ft | 141 kts | 281° |
| 2026-04-17 15:26 | 27.68780 | 85.33607 | 5398 ft | 141 kts | 326° |
| 2026-04-17 15:27 | 27.69726 | 85.33413 | 5462 ft | 141 kts | 11° |
| 2026-04-17 15:27 | 27.70517 | 85.34027 | 5526 ft | 141 kts | 56° |
| 2026-04-17 15:27 | 27.70693 | 85.35081 | 5589 ft | 141 kts | 101° |
| 2026-04-17 15:27 | 27.70152 | 85.35975 | 5654 ft | 141 kts | 146° |
| 2026-04-17 15:28 | 27.69222 | 85.36271 | 5731 ft | 140 kts | 172° |
| 2026-04-17 15:28 | 27.68258 | 85.36199 | 5793 ft | 141 kts | 204° |
| 2026-04-17 15:28 | 27.67550 | 85.35439 | 5870 ft | 140 kts | 233° |
| 2026-04-17 15:28 | 27.66970 | 85.34556 | 5944 ft | 140 kts | 229° |
| 2026-04-17 15:29 | 27.66195 | 85.33883 | 6016 ft | 140 kts | 220° |
| 2026-04-17 15:29 | 27.65575 | 85.33084 | 6173 ft | 134 kts | 237° |
| 2026-04-17 15:29 | 27.65189 | 85.32137 | 6343 ft | 130 kts | 253° |
| 2026-04-17 15:29 | 27.65053 | 85.31142 | 6513 ft | 127 kts | 269° |
| 2026-04-17 15:30 | 27.65152 | 85.30170 | 6683 ft | 125 kts | 284° |
| 2026-04-17 15:30 | 27.65469 | 85.29261 | 6856 ft | 124 kts | 299° |
| 2026-04-17 15:30 | 27.65891 | 85.28582 | 7005 ft | 122 kts | 310° |
| 2026-04-17 15:30 | 27.65944 | 85.28513 | 7022 ft | 122 kts | 311° |
| 2026-04-17 15:31 | 27.66557 | 85.27864 | 7231 ft | 119 kts | 322° |
| 2026-04-17 15:31 | 27.67244 | 85.27369 | 7404 ft | 118 kts | 334° |
| 2026-04-17 15:31 | 27.68012 | 85.27023 | 7580 ft | 118 kts | 344° |
| 2026-04-17 15:31 | 27.68816 | 85.26843 | 7755 ft | 117 kts | 355° |
| 2026-04-17 15:32 | 27.69627 | 85.26833 | 7930 ft | 116 kts | 5° |
| 2026-04-17 15:32 | 27.70426 | 85.26990 | 8105 ft | 116 kts | 16° |
| 2026-04-17 15:32 | 27.71182 | 85.27307 | 8280 ft | 115 kts | 26° |
| 2026-04-17 15:32 | 27.71864 | 85.27766 | 8454 ft | 114 kts | 37° |
| 2026-04-17 15:33 | 27.72459 | 85.28353 | 8628 ft | 114 kts | 47° |
| 2026-04-17 15:33 | 27.72954 | 85.29054 | 8801 ft | 113 kts | 57° |
| 2026-04-17 15:33 | 27.73337 | 85.29829 | 8974 ft | 113 kts | 62° |
| 2026-04-17 15:33 | 27.73700 | 85.30601 | 9144 ft | 112 kts | 63° |
| 2026-04-17 15:34 | 27.74056 | 85.31383 | 9317 ft | 112 kts | 63° |
| 2026-04-17 15:34 | 27.74402 | 85.32162 | 9488 ft | 111 kts | 64° |
| 2026-04-17 15:34 | 27.74742 | 85.32942 | 9659 ft | 110 kts | 64° |
| 2026-04-17 15:34 | 27.75101 | 85.33772 | 9727 ft | 125 kts | 64° |
| 2026-04-17 15:35 | 27.75456 | 85.34689 | 9925 ft | 130 kts | 71° |
| 2026-04-17 15:35 | 27.75699 | 85.35696 | 10114 ft | 136 kts | 79° |
| 2026-04-17 15:35 | 27.75811 | 85.36777 | 10303 ft | 141 kts | 88° |
| 2026-04-17 15:35 | 27.75773 | 85.37901 | 10488 ft | 146 kts | 96° |
| 2026-04-17 15:36 | 27.75571 | 85.39039 | 10672 ft | 149 kts | 106° |
| 2026-04-17 15:36 | 27.75208 | 85.40131 | 10852 ft | 152 kts | 115° |
| 2026-04-17 15:36 | 27.74672 | 85.41181 | 11033 ft | 155 kts | 124° |
| 2026-04-17 15:36 | 27.73979 | 85.42127 | 11214 ft | 157 kts | 134° |
| 2026-04-17 15:37 | 27.73154 | 85.42927 | 11391 ft | 158 kts | 144° |
| 2026-04-17 15:37 | 27.72208 | 85.43568 | 11569 ft | 159 kts | 154° |
| 2026-04-17 15:37 | 27.71177 | 85.44056 | 11747 ft | 160 kts | 157° |
| 2026-04-17 15:37 | 27.70146 | 85.44536 | 11924 ft | 161 kts | 156° |
| 2026-04-17 15:38 | 27.69139 | 85.45100 | 12100 ft | 161 kts | 150° |
| 2026-04-17 15:38 | 27.68181 | 85.45768 | 12276 ft | 161 kts | 145° |
| 2026-04-17 15:38 | 27.67286 | 85.46528 | 12450 ft | 162 kts | 140° |
| 2026-04-17 15:38 | 27.66447 | 85.47386 | 12626 ft | 162 kts | 135° |
| 2026-04-17 15:39 | 27.65686 | 85.48320 | 12800 ft | 161 kts | 129° |
| 2026-04-17 15:39 | 27.65010 | 85.49319 | 12973 ft | 161 kts | 124° |
| 2026-04-17 15:39 | 27.64409 | 85.50392 | 13148 ft | 161 kts | 119° |
| 2026-04-17 15:39 | 27.63900 | 85.51514 | 13321 ft | 161 kts | 114° |
| 2026-04-17 15:40 | 27.63485 | 85.52676 | 13494 ft | 160 kts | 109° |
| 2026-04-17 15:40 | 27.63144 | 85.53866 | 13691 ft | 158 kts | 107° |
| 2026-04-17 15:40 | 27.62823 | 85.55019 | 14010 ft | 147 kts | 107° |
| 2026-04-17 15:40 | 27.62547 | 85.56028 | 14506 ft | 121 kts | 107° |
| 2026-04-17 15:41 | 27.62340 | 85.56790 | 14927 ft | 92 kts | 107° |
| 2026-04-17 15:41 | 27.62130 | 85.57556 | 14882 ft | 108 kts | 107° |
| 2026-04-17 15:41 | 27.61924 | 85.58320 | 15087 ft | 98 kts | 106° |
| 2026-04-17 15:41 | 27.61716 | 85.59088 | 15131 ft | 105 kts | 107° |
| 2026-04-17 15:42 | 27.61512 | 85.59845 | 15215 ft | 102 kts | 106° |
| 2026-04-17 15:42 | 27.61295 | 85.60673 | 15229 ft | 106 kts | 107° |
| 2026-04-17 15:42 | 27.61096 | 85.61466 | 15261 ft | 112 kts | 102° |
| 2026-04-17 15:42 | 27.60877 | 85.62254 | 15463 ft | 97 kts | 103° |
| 2026-04-17 15:43 | 27.60664 | 85.63019 | 15423 ft | 106 kts | 104° |
| 2026-04-17 15:43 | 27.60441 | 85.63799 | 15391 ft | 108 kts | 112° |
| 2026-04-17 15:43 | 27.60231 | 85.64594 | 15464 ft | 101 kts | 110° |
| 2026-04-17 15:43 | 27.60058 | 85.65373 | 15419 ft | 109 kts | 95° |
| 2026-04-17 15:44 | 27.59845 | 85.66176 | 15499 ft | 102 kts | 103° |
| 2026-04-17 15:44 | 27.59628 | 85.66955 | 15559 ft | 106 kts | 105° |
| 2026-04-17 15:44 | 27.59417 | 85.67721 | 15758 ft | 100 kts | 107° |
| 2026-04-17 15:44 | 27.59174 | 85.68470 | 15799 ft | 103 kts | 117° |
| 2026-04-17 15:45 | 27.58804 | 85.69205 | 15603 ft | 113 kts | 118° |
| 2026-04-17 15:45 | 27.58554 | 85.69990 | 15852 ft | 97 kts | 119° |
| 2026-04-17 15:45 | 27.58283 | 85.70720 | 15868 ft | 108 kts | 119° |
| 2026-04-17 15:45 | 27.57965 | 85.71465 | 16041 ft | 100 kts | 119° |
| 2026-04-17 15:46 | 27.57632 | 85.72166 | 16093 ft | 105 kts | 118° |
| 2026-04-17 15:46 | 27.57237 | 85.72922 | 16102 ft | 118 kts | 119° |
| 2026-04-17 15:46 | 27.56769 | 85.73747 | 16125 ft | 131 kts | 123° |
| 2026-04-17 15:46 | 27.56239 | 85.74595 | 16258 ft | 134 kts | 126° |
| 2026-04-17 15:47 | 27.55649 | 85.75444 | 16372 ft | 139 kts | 130° |
| 2026-04-17 15:47 | 27.54995 | 85.76299 | 16465 ft | 146 kts | 132° |
| 2026-04-17 15:47 | 27.54294 | 85.77123 | 16678 ft | 143 kts | 136° |
| 2026-04-17 15:47 | 27.53565 | 85.77897 | 16874 ft | 143 kts | 139° |
| 2026-04-17 15:48 | 27.52824 | 85.78648 | 17008 ft | 149 kts | 139° |
| 2026-04-17 15:48 | 27.52063 | 85.79413 | 17092 ft | 140 kts | 139° |
| 2026-04-17 15:48 | 27.51363 | 85.80120 | 17151 ft | 131 kts | 139° |
| 2026-04-17 15:48 | 27.50671 | 85.80817 | 17027 ft | 137 kts | 139° |
| 2026-04-17 15:49 | 27.49966 | 85.81525 | 16993 ft | 135 kts | 139° |
| 2026-04-17 15:49 | 27.49276 | 85.82219 | 16985 ft | 132 kts | 138° |
| 2026-04-17 15:49 | 27.48581 | 85.82918 | 16901 ft | 134 kts | 137° |
| 2026-04-17 15:49 | 27.47891 | 85.83612 | 16887 ft | 132 kts | 138° |
| 2026-04-17 15:50 | 27.47199 | 85.84308 | 16822 ft | 133 kts | 138° |
| 2026-04-17 15:50 | 27.46501 | 85.85008 | 16770 ft | 133 kts | 138° |
| 2026-04-17 15:50 | 27.45817 | 85.85694 | 16746 ft | 131 kts | 138° |
| 2026-04-17 15:50 | 27.45135 | 85.86377 | 16721 ft | 130 kts | 139° |
| 2026-04-17 15:51 | 27.44470 | 85.87042 | 16730 ft | 124 kts | 139° |
| 2026-04-17 15:51 | 27.43829 | 85.87684 | 16722 ft | 120 kts | 139° |
| 2026-04-17 15:51 | 27.43208 | 85.88305 | 16662 ft | 121 kts | 139° |
| 2026-04-17 15:51 | 27.42569 | 85.88943 | 16607 ft | 122 kts | 139° |
| 2026-04-17 15:52 | 27.41934 | 85.89577 | 16567 ft | 120 kts | 139° |
| 2026-04-17 15:52 | 27.41345 | 85.90167 | 16613 ft | 110 kts | 138° |
| 2026-04-17 15:52 | 27.40756 | 85.90757 | 16527 ft | 112 kts | 139° |
| 2026-04-17 15:52 | 27.40175 | 85.91338 | 16457 ft | 113 kts | 139° |
| 2026-04-17 15:53 | 27.39575 | 85.91969 | 16364 ft | 114 kts | 140° |
| 2026-04-17 15:53 | 27.39007 | 85.92507 | 16367 ft | 109 kts | 138° |
| 2026-04-17 15:53 | 27.38435 | 85.93112 | 16362 ft | 113 kts | 142° |
| 2026-04-17 15:53 | 27.37854 | 85.93688 | 16490 ft | 110 kts | 139° |
| 2026-04-17 15:54 | 27.37270 | 85.94263 | 16540 ft | 113 kts | 140° |
| 2026-04-17 15:54 | 27.36674 | 85.94851 | 16607 ft | 114 kts | 139° |
| 2026-04-17 15:54 | 27.36074 | 85.95445 | 16682 ft | 115 kts | 140° |
| 2026-04-17 15:54 | 27.35470 | 85.96042 | 16766 ft | 115 kts | 139° |
| 2026-04-17 15:55 | 27.34867 | 85.96641 | 16824 ft | 115 kts | 139° |
| 2026-04-17 15:55 | 27.34258 | 85.97249 | 16851 ft | 117 kts | 138° |
| 2026-04-17 15:55 | 27.33655 | 85.97852 | 16893 ft | 115 kts | 138° |
| 2026-04-17 15:55 | 27.33050 | 85.98457 | 16898 ft | 117 kts | 138° |
| 2026-04-17 15:56 | 27.32439 | 85.99066 | 16937 ft | 116 kts | 138° |
| 2026-04-17 15:56 | 27.31836 | 85.99670 | 16939 ft | 117 kts | 138° |
| 2026-04-17 15:56 | 27.31226 | 86.00279 | 16971 ft | 116 kts | 138° |
| 2026-04-17 15:56 | 27.30614 | 86.00890 | 16978 ft | 117 kts | 138° |
| 2026-04-17 15:57 | 27.30012 | 86.01491 | 17005 ft | 116 kts | 138° |
| 2026-04-17 15:57 | 27.29403 | 86.02097 | 17014 ft | 117 kts | 138° |
| 2026-04-17 15:57 | 27.28794 | 86.02705 | 17039 ft | 116 kts | 138° |
| 2026-04-17 15:57 | 27.28184 | 86.03313 | 17051 ft | 117 kts | 138° |
| 2026-04-17 15:58 | 27.27594 | 86.03900 | 16970 ft | 111 kts | 137° |
| 2026-04-17 15:58 | 27.26975 | 86.04517 | 16693 ft | 122 kts | 139° |
| 2026-04-17 15:58 | 27.26338 | 86.05151 | 16655 ft | 122 kts | 139° |
| 2026-04-17 15:58 | 27.25702 | 86.05784 | 16632 ft | 123 kts | 139° |
| 2026-04-17 15:59 | 27.25062 | 86.06421 | 16625 ft | 121 kts | 139° |
| 2026-04-17 15:59 | 27.24421 | 86.07058 | 16602 ft | 123 kts | 139° |
| 2026-04-17 15:59 | 27.23790 | 86.07686 | 16603 ft | 122 kts | 139° |
| 2026-04-17 15:59 | 27.23145 | 86.08328 | 16588 ft | 122 kts | 139° |
| 2026-04-17 16:00 | 27.22515 | 86.08955 | 16578 ft | 122 kts | 139° |
| 2026-04-17 16:00 | 27.21877 | 86.09589 | 16570 ft | 122 kts | 139° |
| 2026-04-17 16:00 | 27.21238 | 86.10226 | 16558 ft | 122 kts | 139° |
| 2026-04-17 16:00 | 27.20596 | 86.10864 | 16549 ft | 122 kts | 139° |
| 2026-04-17 16:01 | 27.19965 | 86.11492 | 16541 ft | 122 kts | 139° |
| 2026-04-17 16:01 | 27.19419 | 86.12228 | 16505 ft | 124 kts | 122° |
| 2026-04-17 16:01 | 27.18917 | 86.13019 | 16512 ft | 122 kts | 123° |
| 2026-04-17 16:01 | 27.18432 | 86.13789 | 16515 ft | 122 kts | 124° |
| 2026-04-17 16:02 | 27.17940 | 86.14577 | 16500 ft | 123 kts | 124° |
| 2026-04-17 16:02 | 27.17455 | 86.15356 | 16509 ft | 122 kts | 124° |
| 2026-04-17 16:02 | 27.16967 | 86.16138 | 16511 ft | 122 kts | 125° |
| 2026-04-17 16:02 | 27.16481 | 86.16921 | 16507 ft | 122 kts | 125° |
| 2026-04-17 16:03 | 27.15993 | 86.17705 | 16515 ft | 122 kts | 125° |
| 2026-04-17 16:03 | 27.15658 | 86.18243 | 16514 ft | 122 kts | 125° |
| 2026-04-17 16:03 | 27.15324 | 86.18780 | 16513 ft | 122 kts | 125° |
| 2026-04-17 16:03 | 27.14836 | 86.19564 | 16517 ft | 122 kts | 125° |
| 2026-04-17 16:04 | 27.14354 | 86.20340 | 16518 ft | 122 kts | 125° |
| 2026-04-17 16:04 | 27.13866 | 86.21123 | 16519 ft | 122 kts | 125° |
| 2026-04-17 16:04 | 27.13375 | 86.21913 | 16522 ft | 122 kts | 125° |
| 2026-04-17 16:04 | 27.12892 | 86.22689 | 16523 ft | 122 kts | 125° |
| 2026-04-17 16:05 | 27.12401 | 86.23479 | 16525 ft | 122 kts | 125° |
| 2026-04-17 16:05 | 27.11912 | 86.24264 | 16526 ft | 122 kts | 125° |
| 2026-04-17 16:05 | 27.11424 | 86.25049 | 16529 ft | 122 kts | 125° |
| 2026-04-17 16:05 | 27.10938 | 86.25829 | 16531 ft | 122 kts | 125° |
| 2026-04-17 16:06 | 27.10452 | 86.26610 | 16532 ft | 122 kts | 125° |
| 2026-04-17 16:06 | 27.09963 | 86.27394 | 16535 ft | 122 kts | 125° |
| 2026-04-17 16:06 | 27.09470 | 86.28185 | 16536 ft | 122 kts | 125° |
| 2026-04-17 16:06 | 27.08989 | 86.28959 | 16538 ft | 122 kts | 125° |
| 2026-04-17 16:07 | 27.08498 | 86.29745 | 16540 ft | 122 kts | 125° |
| 2026-04-17 16:07 | 27.08009 | 86.30531 | 16542 ft | 122 kts | 125° |
| 2026-04-17 16:07 | 27.07519 | 86.31317 | 16544 ft | 122 kts | 125° |
| 2026-04-17 16:07 | 27.07035 | 86.32093 | 16545 ft | 122 kts | 125° |
| 2026-04-17 16:08 | 27.06545 | 86.32880 | 16548 ft | 122 kts | 125° |
| 2026-04-17 16:08 | 27.06054 | 86.33666 | 16549 ft | 122 kts | 125° |
| 2026-04-17 16:08 | 27.05570 | 86.34443 | 16551 ft | 122 kts | 125° |
| 2026-04-17 16:08 | 27.05082 | 86.35225 | 16553 ft | 122 kts | 125° |
| 2026-04-17 16:09 | 27.04593 | 86.36009 | 16556 ft | 122 kts | 125° |
| 2026-04-17 16:09 | 27.04108 | 86.36786 | 16557 ft | 122 kts | 125° |
| 2026-04-17 16:09 | 27.03618 | 86.37570 | 16559 ft | 122 kts | 125° |
| 2026-04-17 16:09 | 27.03129 | 86.38354 | 16560 ft | 122 kts | 125° |
| 2026-04-17 16:10 | 27.02641 | 86.39136 | 16563 ft | 122 kts | 125° |
| 2026-04-17 16:10 | 27.02154 | 86.39915 | 16565 ft | 122 kts | 125° |
| 2026-04-17 16:10 | 27.01665 | 86.40698 | 16567 ft | 122 kts | 125° |
| 2026-04-17 16:10 | 27.01177 | 86.41479 | 16570 ft | 122 kts | 125° |
| 2026-04-17 16:11 | 27.00688 | 86.42262 | 16571 ft | 122 kts | 125° |
| 2026-04-17 16:11 | 27.00195 | 86.43052 | 16574 ft | 122 kts | 125° |
| 2026-04-17 16:11 | 26.99710 | 86.43826 | 16576 ft | 122 kts | 125° |
| 2026-04-17 16:11 | 26.99219 | 86.44613 | 16577 ft | 122 kts | 125° |
| 2026-04-17 16:12 | 26.98729 | 86.45396 | 16580 ft | 122 kts | 125° |
| 2026-04-17 16:12 | 26.98243 | 86.46173 | 16581 ft | 122 kts | 125° |
| 2026-04-17 16:12 | 26.97756 | 86.46953 | 16584 ft | 122 kts | 125° |
| 2026-04-17 16:12 | 26.97388 | 86.47540 | 16585 ft | 122 kts | 125° |
| 2026-04-17 16:13 | 26.96906 | 86.48312 | 16587 ft | 122 kts | 125° |
| 2026-04-17 16:13 | 26.96415 | 86.49096 | 16590 ft | 122 kts | 125° |
| 2026-04-17 16:13 | 26.95925 | 86.49877 | 16592 ft | 122 kts | 125° |
| 2026-04-17 16:13 | 26.95441 | 86.50652 | 16594 ft | 122 kts | 125° |
| 2026-04-17 16:14 | 26.94460 | 86.52218 | 16598 ft | 122 kts | 125° |
| 2026-04-17 16:14 | 26.93968 | 86.53004 | 16600 ft | 122 kts | 125° |
| 2026-04-17 16:14 | 26.93484 | 86.53777 | 16603 ft | 122 kts | 125° |
| 2026-04-17 16:15 | 26.92991 | 86.54562 | 16604 ft | 122 kts | 125° |
| 2026-04-17 16:15 | 26.92504 | 86.55340 | 16607 ft | 122 kts | 125° |
| 2026-04-17 16:15 | 26.92013 | 86.56123 | 16610 ft | 122 kts | 125° |
| 2026-04-17 16:15 | 26.91521 | 86.56908 | 16611 ft | 122 kts | 125° |
| 2026-04-17 16:16 | 26.91032 | 86.57688 | 16614 ft | 122 kts | 125° |
| 2026-04-17 16:16 | 26.90543 | 86.58469 | 16616 ft | 122 kts | 125° |
| 2026-04-17 16:16 | 26.90055 | 86.59246 | 16618 ft | 122 kts | 125° |
| 2026-04-17 16:16 | 26.89568 | 86.60022 | 16620 ft | 122 kts | 125° |
| 2026-04-17 16:17 | 26.89077 | 86.60805 | 16621 ft | 122 kts | 125° |
| 2026-04-17 16:17 | 26.88586 | 86.61587 | 16623 ft | 122 kts | 125° |
| 2026-04-17 16:17 | 26.88101 | 86.62361 | 16627 ft | 122 kts | 125° |
| 2026-04-17 16:17 | 26.87609 | 86.63143 | 16628 ft | 122 kts | 125° |
| 2026-04-17 16:18 | 26.87117 | 86.63927 | 16630 ft | 122 kts | 125° |
| 2026-04-17 16:18 | 26.86628 | 86.64707 | 16632 ft | 122 kts | 125° |
| 2026-04-17 16:18 | 26.86358 | 86.65582 | 16556 ft | 128 kts | 84° |
| 2026-04-17 16:18 | 26.86371 | 86.66570 | 16603 ft | 122 kts | 88° |
| 2026-04-17 16:19 | 26.86378 | 86.67503 | 16631 ft | 120 kts | 90° |
| 2026-04-17 16:19 | 26.86385 | 86.68463 | 16587 ft | 124 kts | 90° |
| 2026-04-17 16:19 | 26.86394 | 86.69418 | 16623 ft | 121 kts | 90° |
| 2026-04-17 16:19 | 26.86403 | 86.70363 | 16611 ft | 122 kts | 90° |
| 2026-04-17 16:20 | 26.86413 | 86.71326 | 16611 ft | 122 kts | 90° |
| 2026-04-17 16:20 | 26.86423 | 86.72271 | 16622 ft | 122 kts | 90° |
| 2026-04-17 16:20 | 26.86434 | 86.73217 | 16617 ft | 122 kts | 90° |
| 2026-04-17 16:20 | 26.86445 | 86.74173 | 16623 ft | 122 kts | 90° |
| 2026-04-17 16:21 | 26.86455 | 86.75125 | 16624 ft | 122 kts | 90° |
| 2026-04-17 16:21 | 26.86467 | 86.76080 | 16625 ft | 122 kts | 90° |
| 2026-04-17 16:21 | 26.86478 | 86.77032 | 16629 ft | 122 kts | 90° |
| 2026-04-17 16:21 | 26.86489 | 86.77981 | 16630 ft | 122 kts | 90° |
| 2026-04-17 16:22 | 26.86500 | 86.78931 | 16633 ft | 122 kts | 90° |
| 2026-04-17 16:22 | 26.86511 | 86.79878 | 16635 ft | 122 kts | 89° |
| 2026-04-17 16:22 | 26.86522 | 86.80839 | 16637 ft | 122 kts | 89° |
| 2026-04-17 16:22 | 26.86533 | 86.81791 | 16639 ft | 122 kts | 90° |
| 2026-04-17 16:23 | 26.86544 | 86.82743 | 16642 ft | 122 kts | 90° |
| 2026-04-17 16:23 | 26.86555 | 86.83685 | 16643 ft | 122 kts | 90° |
| 2026-04-17 16:23 | 26.86566 | 86.84638 | 16647 ft | 122 kts | 90° |
| 2026-04-17 16:23 | 26.86577 | 86.85586 | 16648 ft | 122 kts | 90° |
| 2026-04-17 16:24 | 26.86587 | 86.86543 | 16650 ft | 122 kts | 90° |
| 2026-04-17 16:24 | 26.86598 | 86.87500 | 16652 ft | 122 kts | 90° |
| 2026-04-17 16:24 | 26.86608 | 86.88438 | 16653 ft | 122 kts | 90° |
| 2026-04-17 16:24 | 26.86619 | 86.89394 | 16656 ft | 122 kts | 90° |
| 2026-04-17 16:25 | 26.86628 | 86.90344 | 16656 ft | 122 kts | 90° |
| 2026-04-17 16:25 | 26.86638 | 86.91299 | 16657 ft | 122 kts | 90° |
| 2026-04-17 16:25 | 26.86648 | 86.92252 | 16658 ft | 122 kts | 90° |
| 2026-04-17 16:25 | 26.86658 | 86.93201 | 16658 ft | 122 kts | 90° |
| 2026-04-17 16:26 | 26.86668 | 86.94152 | 16659 ft | 122 kts | 90° |
| 2026-04-17 16:26 | 26.86679 | 86.95099 | 16659 ft | 122 kts | 90° |
| 2026-04-17 16:26 | 26.86686 | 86.95851 | 16661 ft | 122 kts | 90° |
| 2026-04-17 16:26 | 26.86696 | 86.96802 | 16661 ft | 122 kts | 90° |
| 2026-04-17 16:27 | 26.86706 | 86.97759 | 16662 ft | 122 kts | 90° |
| 2026-04-17 16:27 | 26.86716 | 86.98715 | 16662 ft | 122 kts | 90° |
| 2026-04-17 16:27 | 26.86727 | 86.99662 | 16665 ft | 122 kts | 90° |
| 2026-04-17 16:27 | 26.86737 | 87.00620 | 16667 ft | 122 kts | 90° |
| 2026-04-17 16:28 | 26.86747 | 87.01564 | 16667 ft | 122 kts | 90° |
| 2026-04-17 16:28 | 26.86756 | 87.02518 | 16670 ft | 122 kts | 90° |
| 2026-04-17 16:28 | 26.86766 | 87.03472 | 16671 ft | 122 kts | 90° |
| 2026-04-17 16:28 | 26.86776 | 87.04424 | 16673 ft | 122 kts | 90° |
| 2026-04-17 16:29 | 26.86785 | 87.05373 | 16674 ft | 122 kts | 90° |
| 2026-04-17 16:29 | 26.86795 | 87.06313 | 16675 ft | 122 kts | 90° |
| 2026-04-17 16:29 | 26.86804 | 87.07266 | 16678 ft | 122 kts | 90° |
| 2026-04-17 16:29 | 26.86813 | 87.08225 | 16679 ft | 122 kts | 90° |
| 2026-04-17 16:30 | 26.86823 | 87.09169 | 16681 ft | 122 kts | 90° |
| 2026-04-17 16:30 | 26.86832 | 87.10127 | 16683 ft | 122 kts | 90° |
| 2026-04-17 16:30 | 26.86841 | 87.11078 | 16684 ft | 122 kts | 90° |
| 2026-04-17 16:30 | 26.86850 | 87.12030 | 16685 ft | 122 kts | 90° |
| 2026-04-17 16:31 | 26.86859 | 87.12972 | 16687 ft | 122 kts | 90° |
| 2026-04-17 16:31 | 26.86868 | 87.13918 | 16690 ft | 122 kts | 90° |
| 2026-04-17 16:31 | 26.86877 | 87.14875 | 16691 ft | 122 kts | 90° |
| 2026-04-17 16:31 | 26.86886 | 87.15830 | 16692 ft | 122 kts | 90° |
| 2026-04-17 16:32 | 26.86894 | 87.16773 | 16693 ft | 122 kts | 90° |
| 2026-04-17 16:32 | 26.86903 | 87.17722 | 16696 ft | 122 kts | 90° |
| 2026-04-17 16:32 | 26.86906 | 87.18049 | 16696 ft | 122 kts | 90° |
| 2026-04-17 16:33 | 26.86931 | 87.20827 | 16701 ft | 122 kts | 90° |
| 2026-04-17 16:33 | 26.86939 | 87.21777 | 16703 ft | 122 kts | 90° |
| 2026-04-17 16:33 | 26.86948 | 87.22733 | 16704 ft | 122 kts | 90° |
| 2026-04-17 16:33 | 26.86956 | 87.23680 | 16707 ft | 122 kts | 90° |
| 2026-04-17 16:34 | 26.86962 | 87.24634 | 16707 ft | 122 kts | 94° |
| 2026-04-17 16:34 | 26.86639 | 87.25530 | 16617 ft | 128 kts | 115° |
| 2026-04-17 16:34 | 26.86279 | 87.26395 | 16711 ft | 117 kts | 117° |
| 2026-04-17 16:34 | 26.85931 | 87.27228 | 16540 ft | 125 kts | 116° |
| 2026-04-17 16:35 | 26.85540 | 87.28150 | 16266 ft | 133 kts | 116° |
| 2026-04-17 16:35 | 26.85149 | 87.29068 | 16063 ft | 133 kts | 115° |
| 2026-04-17 16:35 | 26.84734 | 87.30035 | 15694 ft | 146 kts | 116° |
| 2026-04-17 16:35 | 26.84291 | 87.31061 | 15543 ft | 141 kts | 116° |
| 2026-04-17 16:36 | 26.83867 | 87.32042 | 15318 ft | 142 kts | 116° |
| 2026-04-17 16:36 | 26.83437 | 87.33039 | 15125 ft | 140 kts | 115° |
| 2026-04-17 16:36 | 26.83021 | 87.34004 | 14901 ft | 142 kts | 115° |
| 2026-04-17 16:36 | 26.82577 | 87.35034 | 14498 ft | 154 kts | 115° |
| 2026-04-17 16:37 | 26.82102 | 87.36134 | 14196 ft | 157 kts | 116° |
| 2026-04-17 16:37 | 26.81628 | 87.37223 | 13936 ft | 157 kts | 116° |
| 2026-04-17 16:37 | 26.81134 | 87.38364 | 13531 ft | 166 kts | 115° |
| 2026-04-17 16:37 | 26.80628 | 87.39534 | 13170 ft | 170 kts | 116° |
| 2026-04-17 16:38 | 26.80112 | 87.40722 | 12813 ft | 172 kts | 116° |
| 2026-04-17 16:38 | 26.79590 | 87.41924 | 12440 ft | 175 kts | 116° |
| 2026-04-17 16:38 | 26.79050 | 87.43167 | 12033 ft | 179 kts | 116° |
| 2026-04-17 16:38 | 26.78500 | 87.44433 | 11584 ft | 183 kts | 116° |
| 2026-04-17 16:39 | 26.77951 | 87.45699 | 11205 ft | 182 kts | 116° |
| 2026-04-17 16:39 | 26.77437 | 87.46877 | 11334 ft | 155 kts | 116° |
| 2026-04-17 16:39 | 26.76977 | 87.47933 | 11212 ft | 149 kts | 116° |
| 2026-04-17 16:39 | 26.76529 | 87.48965 | 11049 ft | 147 kts | 116° |
| 2026-04-17 16:40 | 26.76078 | 87.49997 | 10866 ft | 144 kts | 116° |
| 2026-04-17 16:40 | 26.75639 | 87.51005 | 10635 ft | 145 kts | 116° |
| 2026-04-17 16:40 | 26.75194 | 87.52023 | 10391 ft | 147 kts | 116° |
| 2026-04-17 16:40 | 26.74748 | 87.53047 | 10147 ft | 148 kts | 116° |
| 2026-04-17 16:41 | 26.74296 | 87.54085 | 9900 ft | 149 kts | 116° |
| 2026-04-17 16:41 | 26.73842 | 87.55128 | 9652 ft | 149 kts | 116° |
| 2026-04-17 16:41 | 26.73387 | 87.56172 | 9404 ft | 150 kts | 116° |
| 2026-04-17 16:41 | 26.72922 | 87.57243 | 9068 ft | 156 kts | 116° |
| 2026-04-17 16:42 | 26.72443 | 87.58347 | 8729 ft | 160 kts | 116° |
| 2026-04-17 16:42 | 26.71953 | 87.59474 | 8387 ft | 164 kts | 116° |
| 2026-04-17 16:42 | 26.71450 | 87.60628 | 8040 ft | 166 kts | 116° |
| 2026-04-17 16:42 | 26.70946 | 87.61785 | 7696 ft | 168 kts | 116° |
| 2026-04-17 16:43 | 26.70437 | 87.62953 | 7349 ft | 169 kts | 116° |
| 2026-04-17 16:43 | 26.69918 | 87.64143 | 6997 ft | 169 kts | 116° |
| 2026-04-17 16:43 | 26.69402 | 87.65326 | 6648 ft | 171 kts | 117° |
| 2026-04-17 16:43 | 26.68842 | 87.66605 | 6326 ft | 198 kts | 117° |
| 2026-04-17 16:44 | 26.68214 | 87.68044 | 5999 ft | 213 kts | 117° |
| 2026-04-17 16:44 | 26.67540 | 87.69585 | 5656 ft | 228 kts | 117° |
| 2026-04-17 16:44 | 26.66831 | 87.71202 | 5369 ft | 233 kts | 117° |
| 2026-04-17 16:44 | 26.66120 | 87.72827 | 5215 ft | 231 kts | 117° |
| 2026-04-17 16:45 | 26.65421 | 87.74425 | 5061 ft | 231 kts | 117° |
| 2026-04-17 16:45 | 26.64724 | 87.76021 | 4907 ft | 228 kts | 117° |
| 2026-04-17 16:45 | 26.64024 | 87.77624 | 4754 ft | 229 kts | 117° |
| 2026-04-17 16:45 | 26.63322 | 87.79225 | 4590 ft | 231 kts | 117° |
| 2026-04-17 16:46 | 26.62621 | 87.80827 | 4493 ft | 220 kts | 117° |
| 2026-04-17 16:46 | 26.62002 | 87.82244 | 4463 ft | 190 kts | 116° |
| 2026-04-17 16:46 | 26.61446 | 87.83530 | 4499 ft | 180 kts | 115° |
| 2026-04-17 16:46 | 26.60939 | 87.84835 | 4386 ft | 183 kts | 117° |
| 2026-04-17 16:47 | 26.60305 | 87.86046 | 4405 ft | 180 kts | 120° |
| 2026-04-17 16:47 | 26.59737 | 87.87257 | 4528 ft | 171 kts | 117° |
| 2026-04-17 16:47 | 26.59439 | 87.88507 | 4546 ft | 171 kts | 85° |
| 2026-04-17 16:47 | 26.59633 | 87.89822 | 4555 ft | 171 kts | 87° |
| 2026-04-17 16:48 | 26.59607 | 87.91147 | 4561 ft | 171 kts | 95° |
| 2026-04-17 16:48 | 26.59466 | 87.92477 | 4565 ft | 176 kts | 99° |
| 2026-04-17 16:48 | 26.59447 | 87.92620 | 4567 ft | 177 kts | 99° |
| 2026-04-17 16:48 | 26.59275 | 87.93834 | 4692 ft | 152 kts | 99° |
| 2026-04-17 16:49 | 26.59098 | 87.94988 | 4391 ft | 151 kts | 100° |
| 2026-04-17 16:49 | 26.58938 | 87.96006 | 4298 ft | 106 kts | 101° |
| 2026-04-17 16:49 | 26.58828 | 87.96753 | 4012 ft | 103 kts | 101° |
| 2026-04-17 16:49 | 26.58724 | 87.97545 | 3569 ft | 102 kts | 99° |
| 2026-04-17 16:50 | 26.58611 | 87.98309 | 3128 ft | 105 kts | 102° |
| 2026-04-17 16:50 | 26.58477 | 87.99173 | 2425 ft | 130 kts | 101° |
| 2026-04-17 16:50 | 26.58322 | 88.00171 | 1809 ft | 123 kts | 102° |
| 2026-04-17 16:50 | 26.58191 | 88.01017 | 1596 ft | 105 kts | 103° |
| 2026-04-17 16:51 | 26.58046 | 88.01759 | 1417 ft | 87 kts | 102° |
| 2026-04-17 16:51 | 26.57941 | 88.02440 | 1296 ft | 89 kts | 100° |
| 2026-04-17 16:51 | 26.57852 | 88.03110 | 1067 ft | 87 kts | 101° |
| 2026-04-17 16:51 | 26.57732 | 88.03761 | 906 ft | 85 kts | 102° |
| 2026-04-17 16:52 | 26.57643 | 88.04419 | 791 ft | 85 kts | 101° |
| 2026-04-17 16:52 | 26.57535 | 88.05063 | 705 ft | 84 kts | 102° |
| 2026-04-17 16:52 | 26.57441 | 88.05697 | 575 ft | 83 kts | 101° |
| 2026-04-17 16:52 | 26.57332 | 88.06332 | 484 ft | 83 kts | 101° |
| 2026-04-17 16:53 | 26.57233 | 88.06969 | 377 ft | 84 kts | 103° |
| 2026-04-17 16:53 | 26.57133 | 88.07602 | 326 ft | 78 kts | 103° |
| 2026-04-17 16:53 | 26.57056 | 88.08054 | 318 ft | 17 kts | 107° |
| 2026-04-17 16:53 | 26.57061 | 88.08033 | 318 ft | 19 kts | 276° |
| 2026-04-17 16:54 | 26.57093 | 88.07827 | 320 ft | 27 kts | 280° |
| 2026-04-17 16:54 | 26.57087 | 88.07725 | 321 ft | 10 kts | 197° |
| 2026-04-17 16:54 | 26.57033 | 88.07745 | 321 ft | 8 kts | 178° |
| 2026-04-17 16:54 | 26.57004 | 88.07715 | 321 ft | 0 kts | 275° |
| 2026-04-17 16:55 | 26.57004 | 88.07714 | 321 ft | 0 kts | 275° |